createdAt,value
2018-01-11T00:01:59.982Z,6.80
2018-01-11T00:04:27.445Z,7.53
2018-01-11T00:06:54.916Z,7.17
2018-01-11T00:09:23.157Z,7.70
2018-01-11T00:11:50.632Z,7.20
2018-01-11T00:14:18.708Z,6.93
2018-01-11T00:16:46.232Z,7.20
2018-01-11T00:19:13.735Z,7.30
2018-01-11T00:21:42.184Z,8.07
2018-01-11T00:24:09.653Z,8.10
2018-01-11T00:26:37.277Z,8.23
2018-01-11T00:29:04.833Z,7.13
2018-01-11T00:31:32.306Z,7.37
2018-01-11T00:33:59.760Z,7.40
2018-01-11T00:36:27.230Z,7.60
2018-01-11T00:38:55.712Z,8.40
2018-01-11T00:41:23.180Z,7.87
2018-01-11T00:43:50.660Z,7.20
2018-01-11T00:46:18.976Z,7.53
2018-01-11T00:48:46.436Z,7.30
2018-01-11T00:51:13.895Z,7.63
2018-01-11T00:53:41.358Z,7.97
2018-01-11T00:56:09.709Z,7.07
2018-01-11T00:58:37.181Z,7.40
2018-01-11T01:01:04.749Z,8.47
2018-01-11T01:03:33.064Z,8.57
2018-01-11T01:06:00.517Z,8.07
2018-01-11T01:08:28.757Z,8.47
2018-01-11T01:10:56.212Z,8.00
2018-01-11T01:13:23.788Z,8.30
2018-01-11T01:15:51.248Z,8.83
2018-01-11T01:18:18.929Z,7.33
2018-01-11T01:20:46.435Z,9.40
2018-01-11T01:23:14.037Z,9.33
2018-01-11T01:25:41.689Z,8.30
2018-01-11T01:28:09.273Z,8.60
2018-01-11T01:30:36.728Z,8.67
2018-01-11T01:33:04.289Z,8.87
2018-01-11T01:35:31.757Z,8.77
2018-01-11T01:37:59.985Z,9.50
2018-01-11T01:40:27.462Z,9.33
2018-01-11T01:42:55.048Z,9.07
2018-01-11T01:45:23.346Z,8.37
2018-01-11T01:47:51.795Z,8.07
2018-01-11T01:50:19.261Z,7.83
2018-01-11T01:52:47.505Z,8.43
2018-01-11T01:55:14.980Z,9.10
2018-01-11T01:57:42.437Z,8.50
2018-01-11T02:00:10.012Z,8.60
2018-01-11T02:02:38.232Z,8.40
2018-01-11T02:05:05.781Z,8.37
2018-01-11T02:07:33.368Z,8.17
2018-01-11T02:10:00.828Z,8.73
2018-01-11T02:12:28.305Z,8.60
2018-01-11T02:14:55.774Z,8.83
2018-01-11T02:17:24.945Z,8.40
2018-01-11T02:19:52.409Z,9.57
2018-01-11T02:22:20.880Z,9.50
2018-01-11T02:24:48.344Z,9.20
2018-01-11T02:27:15.830Z,8.90
2018-01-11T02:29:44.049Z,8.60
2018-01-11T02:32:11.526Z,8.73
2018-01-11T02:34:38.984Z,9.50
2018-01-11T02:37:06.557Z,9.50
2018-01-11T02:39:34.002Z,8.27
2018-01-11T02:42:01.477Z,8.60
2018-01-11T02:44:29.693Z,9.07
2018-01-11T02:46:57.157Z,9.27
2018-01-11T02:49:24.668Z,9.03
2018-01-11T02:51:52.376Z,9.20
2018-01-11T02:54:19.846Z,9.10
2018-01-11T02:56:51.185Z,9.87
2018-01-11T02:59:18.645Z,8.73
2018-01-11T03:01:46.604Z,7.90
2018-01-11T03:04:14.108Z,7.67
2018-01-11T03:06:42.432Z,8.87
2018-01-11T03:09:11.511Z,8.60
2018-01-11T03:11:39.089Z,9.07
2018-01-11T03:14:06.650Z,9.90
2018-01-11T03:16:34.108Z,9.57
2018-01-11T03:19:02.585Z,9.90
2018-01-11T03:21:30.177Z,9.27
2018-01-11T03:23:57.625Z,9.50
2018-01-11T03:26:25.116Z,9.10
2018-01-11T03:28:52.570Z,9.70
2018-01-11T03:31:20.805Z,8.30
2018-01-11T03:33:48.257Z,7.67
2018-01-11T03:36:15.726Z,9.77
2018-01-11T03:38:43.176Z,8.20
2018-01-11T03:41:10.662Z,8.00
2018-01-11T03:43:38.984Z,8.20
2018-01-11T03:46:07.431Z,8.27
2018-01-11T03:48:36.912Z,7.93
2018-01-11T03:51:04.386Z,7.60
2018-01-11T03:53:31.861Z,8.30
2018-01-11T03:56:00.088Z,8.23
2018-01-11T03:58:27.578Z,8.53
2018-01-11T04:00:55.032Z,8.23
2018-01-11T04:03:22.494Z,8.00
2018-01-11T04:05:50.720Z,7.73
2018-01-11T04:08:18.193Z,8.17
2018-01-11T04:10:46.545Z,8.10
2018-01-11T04:13:14.005Z,7.80
2018-01-11T04:15:41.512Z,8.33
2018-01-11T04:18:09.015Z,9.43
2018-01-11T04:20:38.168Z,7.73
2018-01-11T04:23:06.473Z,8.20
2018-01-11T04:25:33.947Z,8.97
2018-01-11T04:28:01.988Z,8.53
2018-01-11T04:30:30.218Z,8.63
2018-01-11T04:32:58.624Z,9.57
2018-01-11T04:35:27.093Z,9.00
2018-01-11T04:37:54.549Z,9.67
2018-01-11T04:40:23.720Z,10.00
2018-01-11T04:42:51.189Z,8.87
2018-01-11T04:45:19.528Z,9.43
2018-01-11T04:47:47.005Z,9.30
2018-01-11T04:50:14.588Z,9.30
2018-01-11T04:52:42.210Z,9.10
2018-01-11T04:55:10.609Z,9.50
2018-01-11T04:57:38.068Z,9.67
2018-01-11T05:00:05.533Z,8.03
2018-01-11T05:02:32.991Z,8.50
2018-01-11T05:05:00.460Z,7.93
2018-01-11T05:07:27.920Z,7.50
2018-01-11T05:09:55.389Z,6.90
2018-01-11T05:12:22.844Z,7.97
2018-01-11T05:14:50.309Z,7.80
2018-01-11T05:17:17.772Z,8.37
2018-01-11T05:19:46.017Z,7.37
2018-01-11T05:22:13.496Z,7.47
2018-01-11T05:24:42.456Z,7.13
2018-01-11T05:27:09.929Z,8.20
2018-01-11T05:29:37.392Z,8.33
2018-01-11T05:32:04.876Z,9.37
2018-01-11T05:34:34.261Z,7.30
2018-01-11T05:37:01.683Z,7.27
2018-01-11T05:39:29.352Z,6.97
2018-01-11T05:41:56.816Z,6.90
2018-01-11T05:44:25.044Z,6.87
2018-01-11T05:46:52.512Z,7.00
2018-01-11T05:49:19.977Z,7.60
2018-01-11T05:51:47.508Z,7.47
2018-01-11T05:54:14.993Z,7.43
2018-01-11T05:56:43.344Z,8.07
2018-01-11T05:59:10.834Z,7.10
2018-01-11T06:01:38.287Z,7.73
2018-01-11T06:04:05.892Z,8.80
2018-01-11T06:06:34.116Z,8.80
2018-01-11T06:09:01.596Z,10.67
2018-01-11T06:11:29.944Z,10.73
2018-01-11T06:13:57.562Z,10.03
2018-01-11T06:16:25.026Z,8.13
2018-01-11T06:18:54.113Z,8.33
2018-01-11T06:21:22.340Z,9.33
2018-01-11T06:23:49.801Z,8.37
2018-01-11T06:26:17.271Z,8.97
2018-01-11T06:28:45.487Z,8.40
2018-01-11T06:31:13.861Z,8.50
2018-01-11T06:33:42.152Z,10.63
2018-01-11T06:36:10.452Z,9.00
2018-01-11T06:38:37.921Z,8.50
2018-01-11T06:41:05.384Z,10.37
2018-01-11T06:43:33.797Z,9.30
2018-01-11T06:46:02.093Z,8.50
2018-01-11T06:48:29.673Z,8.63
2018-01-11T06:50:57.132Z,9.20
2018-01-11T06:53:24.599Z,8.80
2018-01-11T06:55:52.074Z,8.73
2018-01-11T06:58:19.520Z,8.87
2018-01-11T07:00:46.998Z,9.30
2018-01-11T07:03:14.469Z,8.50
2018-01-11T07:05:43.717Z,9.03
2018-01-11T07:08:11.229Z,8.90
2018-01-11T07:10:39.469Z,9.97
2018-01-11T07:13:06.942Z,9.10
2018-01-11T07:15:34.404Z,9.40
2018-01-11T07:18:01.884Z,9.93
2018-01-11T07:20:29.481Z,9.63
2018-01-11T07:22:57.001Z,10.50
2018-01-11T07:25:24.430Z,12.43
2018-01-11T07:27:51.900Z,11.90
2018-01-11T07:30:19.372Z,12.27
2018-01-11T07:32:47.605Z,12.20
2018-01-11T07:35:15.068Z,11.90
2018-01-11T07:37:42.564Z,11.87
2018-01-11T07:40:10.806Z,11.97
2018-01-11T07:42:39.112Z,11.40
2018-01-11T07:45:07.351Z,12.10
2018-01-11T07:47:34.815Z,12.07
2018-01-11T07:50:02.288Z,12.10
2018-01-11T07:52:32.033Z,12.70
2018-01-11T07:54:59.625Z,12.20
2018-01-11T07:57:27.661Z,11.90
2018-01-11T07:59:55.122Z,13.10
2018-01-11T08:02:22.667Z,11.93
2018-01-11T08:04:50.933Z,12.10
2018-01-11T08:07:19.173Z,11.57
2018-01-11T08:09:46.639Z,12.37
2018-01-11T08:12:14.713Z,10.93
2018-01-11T08:14:43.041Z,11.50
2018-01-11T08:17:10.521Z,11.10
2018-01-11T08:19:38.042Z,12.40
2018-01-11T08:22:06.291Z,12.13
2018-01-11T08:24:33.773Z,11.43
2018-01-11T08:27:02.222Z,11.13
2018-01-11T08:29:29.676Z,10.67
2018-01-11T08:31:57.161Z,11.83
2018-01-11T08:34:25.396Z,11.60
2018-01-11T08:36:52.856Z,11.70
2018-01-11T08:39:20.341Z,10.80
2018-01-11T08:41:48.643Z,11.80
2018-01-11T08:44:17.133Z,11.83
2018-01-11T08:46:44.604Z,11.97
2018-01-11T08:49:12.097Z,11.40
2018-01-11T08:51:39.573Z,12.40
2018-01-11T08:54:07.857Z,12.90
2018-01-11T08:56:36.203Z,13.40
2018-01-11T08:59:03.674Z,12.50
2018-01-11T09:01:31.278Z,13.23
2018-01-11T09:04:00.884Z,13.43
2018-01-11T09:06:28.356Z,13.40
2018-01-11T09:08:55.851Z,14.23
2018-01-11T09:11:23.316Z,14.00
2018-01-11T09:13:51.548Z,13.87
2018-01-11T09:16:19.018Z,14.00
2018-01-11T09:18:46.487Z,12.70
2018-01-11T09:21:14.942Z,13.90
2018-01-11T09:23:42.427Z,14.60
2018-01-11T09:26:09.900Z,13.60
2018-01-11T09:28:38.128Z,13.50
2018-01-11T09:31:06.542Z,13.87
2018-01-11T09:33:34.999Z,13.10
2018-01-11T09:36:02.584Z,13.73
2018-01-11T09:38:30.095Z,13.57
2018-01-11T09:40:57.730Z,12.77
2018-01-11T09:43:25.285Z,14.23
2018-01-11T09:45:54.353Z,14.60
2018-01-11T09:48:21.836Z,14.10
2018-01-11T09:50:50.092Z,14.40
2018-01-11T09:53:17.561Z,14.23
2018-01-11T09:55:45.785Z,14.07
2018-01-11T09:58:13.257Z,13.50
2018-01-11T10:00:40.732Z,14.23
2018-01-11T10:03:08.200Z,14.23
2018-01-11T10:05:36.655Z,13.77
2018-01-11T10:08:05.170Z,14.30
2018-01-11T10:10:33.424Z,13.83
2018-01-11T10:13:00.888Z,13.17
2018-01-11T10:15:28.376Z,13.73
2018-01-11T10:17:55.836Z,14.00
2018-01-11T10:20:23.324Z,13.50
2018-01-11T10:22:50.789Z,14.40
2018-01-11T10:25:18.271Z,13.57
2018-01-11T10:27:45.802Z,13.77
2018-01-11T10:30:13.337Z,14.43
2018-01-11T10:32:40.912Z,13.47
2018-01-11T10:35:09.405Z,14.37
2018-01-11T10:37:36.872Z,14.37
2018-01-11T10:40:04.365Z,14.40
2018-01-11T10:42:32.593Z,15.50
2018-01-11T10:45:01.053Z,14.53
2018-01-11T10:47:28.532Z,13.40
2018-01-11T10:49:56.003Z,15.57
2018-01-11T10:52:24.449Z,14.07
2018-01-11T10:54:51.925Z,13.43
2018-01-11T10:57:19.409Z,13.30
2018-01-11T10:59:46.859Z,14.07
2018-01-11T11:02:19.907Z,14.17
2018-01-11T11:04:48.235Z,14.27
2018-01-11T11:07:15.703Z,13.33
2018-01-11T11:09:43.945Z,14.27
2018-01-11T11:12:11.481Z,14.93
2018-01-11T11:14:38.952Z,14.93
2018-01-11T11:17:06.528Z,14.70
2018-01-11T11:19:34.025Z,14.40
2018-01-11T11:22:01.644Z,14.93
2018-01-11T11:24:29.189Z,15.20
2018-01-11T11:26:57.688Z,14.50
2018-01-11T11:29:25.241Z,14.90
2018-01-11T11:31:52.798Z,14.17
2018-01-11T11:34:20.272Z,15.47
2018-01-11T11:36:48.503Z,14.80
2018-01-11T11:39:15.985Z,15.50
2018-01-11T11:41:43.457Z,16.50
2018-01-11T11:44:11.680Z,15.50
2018-01-11T11:46:39.160Z,17.47
2018-01-11T11:49:07.546Z,16.87
2018-01-11T11:51:35.021Z,16.60
2018-01-11T11:54:02.496Z,16.93
2018-01-11T11:56:30.732Z,17.43
2018-01-11T11:58:58.189Z,16.83
2018-01-11T12:01:25.669Z,17.07
2018-01-11T12:03:53.124Z,17.07
2018-01-11T12:06:23.145Z,16.63
2018-01-11T12:08:50.622Z,15.50
2018-01-11T12:11:18.877Z,16.13
2018-01-11T12:13:48.109Z,16.73
2018-01-11T12:16:15.587Z,17.07
2018-01-11T12:18:43.045Z,17.50
2018-01-11T12:21:10.521Z,17.33
2018-01-11T12:23:38.824Z,16.70
2018-01-11T12:26:07.068Z,16.53
2018-01-11T12:28:35.481Z,17.07
2018-01-11T12:31:03.717Z,17.73
2018-01-11T12:33:31.333Z,17.90
2018-01-11T12:35:58.806Z,18.07
2018-01-11T12:38:26.322Z,17.80
2018-01-11T12:40:53.792Z,17.20
2018-01-11T12:43:22.909Z,17.70
2018-01-11T12:45:50.387Z,16.83
2018-01-11T12:48:17.875Z,17.60
2018-01-11T12:50:45.351Z,18.50
2018-01-11T12:53:12.836Z,18.70
2018-01-11T12:55:40.316Z,17.57
2018-01-11T12:58:07.793Z,19.80
2018-01-11T13:00:35.270Z,20.13
2018-01-11T13:03:03.654Z,17.50
2018-01-11T13:05:31.136Z,16.73
2018-01-11T13:07:59.369Z,16.10
2018-01-11T13:10:27.721Z,16.67
2018-01-11T13:12:55.176Z,15.40
2018-01-11T13:15:22.678Z,14.90
2018-01-11T13:17:50.144Z,14.20
2018-01-11T13:20:20.361Z,14.50
2018-01-11T13:22:48.265Z,13.77
2018-01-11T13:25:15.763Z,14.10
2018-01-11T13:27:43.254Z,13.47
2018-01-11T13:30:11.488Z,15.50
2018-01-11T13:32:38.970Z,15.23
2018-01-11T13:35:06.432Z,15.50
2018-01-11T13:37:34.674Z,15.07
2018-01-11T13:40:02.146Z,13.53
2018-01-11T13:42:29.640Z,13.43
2018-01-11T13:44:57.909Z,11.97
2018-01-11T13:47:27.300Z,12.60
2018-01-11T13:49:55.547Z,12.93
2018-01-11T13:52:23.028Z,13.90
2018-01-11T13:54:50.548Z,14.10
2018-01-11T13:57:18.027Z,14.90
2018-01-11T13:59:45.544Z,12.90
2018-01-11T14:02:13.907Z,14.13
2018-01-11T14:04:41.400Z,13.13
2018-01-11T14:07:08.882Z,13.17
2018-01-11T14:09:36.364Z,13.27
2018-01-11T14:12:05.460Z,12.30
2018-01-11T14:14:33.697Z,11.40
2018-01-11T14:17:01.181Z,11.57
2018-01-11T14:19:28.690Z,11.67
2018-01-11T14:21:57.177Z,11.73
2018-01-11T14:24:24.654Z,11.57
2018-01-11T14:26:52.162Z,11.23
2018-01-11T14:29:21.485Z,11.27
2018-01-11T14:31:49.056Z,13.40
2018-01-11T14:34:16.603Z,13.30
2018-01-11T14:36:45.736Z,13.97
2018-01-11T14:39:13.309Z,12.80
2018-01-11T14:41:40.792Z,16.40
2018-01-11T14:44:08.276Z,18.80
2018-01-11T14:46:35.760Z,19.20
2018-01-11T14:49:03.234Z,20.70
2018-01-11T14:51:31.560Z,20.20
2018-01-11T14:53:59.093Z,21.97
2018-01-11T14:56:26.529Z,22.10
2018-01-11T14:58:54.004Z,21.30
2018-01-11T15:01:23.230Z,21.60
2018-01-11T15:03:50.997Z,20.73
2018-01-11T15:06:18.456Z,21.27
2018-01-11T15:08:45.966Z,21.50
2018-01-11T15:11:14.204Z,21.10
2018-01-11T15:13:41.704Z,19.97
2018-01-11T15:16:09.942Z,19.33
2018-01-11T15:18:37.450Z,18.40
2018-01-11T15:21:05.687Z,20.53
2018-01-11T15:23:33.158Z,17.60
2018-01-11T15:26:01.381Z,17.30
2018-01-11T15:28:28.862Z,19.00
2018-01-11T15:30:56.359Z,16.83
2018-01-11T15:33:24.596Z,17.60
2018-01-11T15:35:52.069Z,17.17
2018-01-11T15:38:19.548Z,19.10
2018-01-11T15:40:47.807Z,19.07
2018-01-11T15:43:16.040Z,18.40
2018-01-11T15:45:43.521Z,19.73
2018-01-11T15:48:11.478Z,17.90
2018-01-11T15:50:38.972Z,18.00
2018-01-11T15:53:07.302Z,18.00
2018-01-11T15:55:34.794Z,18.80
2018-01-11T15:58:02.528Z,19.37
2018-01-11T16:00:30.288Z,19.33
2018-01-11T16:02:58.086Z,20.13
2018-01-11T16:05:26.565Z,21.40
2018-01-11T16:07:54.046Z,22.33
2018-01-11T16:10:22.296Z,24.20
2018-01-11T16:12:50.709Z,23.67
2018-01-11T16:15:19.013Z,23.80
2018-01-11T16:17:46.493Z,23.37
2018-01-11T16:40:11.498Z,24.37
2018-01-11T16:42:39.021Z,23.07
2018-01-11T16:45:06.630Z,24.13
2018-01-11T16:47:34.883Z,23.70
2018-01-11T16:50:02.557Z,23.57
2018-01-11T16:52:30.786Z,21.83
2018-01-11T16:54:58.453Z,21.00
2018-01-11T16:57:25.967Z,20.60
2018-01-11T16:59:54.227Z,20.97
2018-01-11T17:02:21.689Z,20.07
2018-01-11T17:04:50.652Z,21.00
2018-01-11T17:07:18.122Z,21.40
2018-01-11T17:09:45.602Z,19.70
2018-01-11T17:12:13.833Z,20.07
2018-01-11T17:14:41.309Z,20.07
2018-01-11T17:17:08.933Z,19.87
2018-01-11T17:19:36.533Z,19.87
2018-01-11T17:22:04.011Z,20.60
2018-01-11T17:24:31.534Z,21.37
2018-01-11T17:26:59.003Z,19.90
2018-01-11T17:29:26.492Z,20.33
2018-01-11T17:31:54.743Z,21.57
2018-01-11T17:34:22.281Z,20.57
2018-01-11T17:36:49.977Z,19.77
2018-01-11T17:39:18.228Z,18.87
2018-01-11T17:41:46.415Z,20.30
2018-01-11T17:44:13.909Z,19.70
2018-01-11T17:46:41.385Z,20.30
2018-01-11T17:49:08.854Z,21.13
2018-01-11T17:51:36.444Z,19.90
2018-01-11T17:54:03.978Z,19.30
2018-01-11T17:56:31.486Z,20.40
2018-01-11T17:58:59.759Z,21.83
2018-01-11T18:01:28.021Z,20.27
2018-01-11T18:03:56.269Z,21.43
2018-01-11T18:06:23.786Z,21.60
2018-01-11T18:08:52.004Z,21.30
2018-01-11T18:11:19.489Z,21.30
2018-01-11T18:13:47.743Z,22.63
2018-01-11T18:16:15.209Z,22.70
2018-01-11T18:18:42.734Z,23.00
2018-01-11T18:21:10.290Z,23.37
2018-01-11T18:23:37.926Z,24.63
2018-01-11T18:26:05.523Z,25.17
2018-01-11T18:28:33.208Z,24.97
2018-01-11T18:31:00.757Z,25.20
2018-01-11T18:33:28.292Z,23.37
2018-01-11T18:35:56.197Z,24.77
2018-01-11T18:38:23.807Z,24.73
2018-01-11T18:40:51.312Z,24.40
2018-01-11T18:43:18.918Z,25.27
2018-01-11T18:45:46.408Z,27.50
2018-01-11T18:48:14.008Z,24.47
2018-01-11T18:50:42.249Z,25.53
2018-01-11T18:53:09.782Z,24.10
2018-01-11T18:55:37.634Z,25.40
2018-01-11T18:58:05.100Z,25.80
2018-01-11T19:00:32.578Z,27.80
2018-01-11T19:03:00.106Z,29.27
2018-01-11T19:05:27.571Z,36.37
2018-01-11T19:07:55.054Z,28.30
2018-01-11T19:10:22.521Z,26.60
2018-01-11T19:12:50.005Z,26.23
2018-01-11T19:15:18.286Z,27.90
2018-01-11T19:17:46.543Z,26.60
2018-01-11T19:20:14.785Z,25.63
2018-01-11T19:22:42.252Z,24.33
2018-01-11T19:25:09.748Z,29.80
2018-01-11T19:27:38.062Z,31.00
2018-01-11T19:30:05.585Z,32.13
2018-01-11T19:32:33.823Z,36.60
2018-01-11T19:35:01.306Z,30.50
2018-01-11T19:37:29.533Z,30.87
2018-01-11T19:39:57.022Z,29.10
2018-01-11T19:42:24.994Z,29.40
2018-01-11T19:44:52.486Z,30.10
2018-01-11T19:47:19.945Z,34.30
2018-01-11T19:49:47.429Z,30.43
2018-01-11T19:52:14.941Z,28.30
2018-01-11T19:54:47.185Z,26.10
2018-01-11T19:57:14.655Z,26.13
2018-01-11T19:59:43.641Z,27.50
2018-01-11T20:02:11.185Z,31.13
2018-01-11T20:04:38.762Z,28.70
2018-01-11T20:07:06.226Z,28.10
2018-01-11T20:09:34.471Z,27.23
2018-01-11T20:12:02.196Z,27.17
2018-01-11T20:14:30.292Z,27.87
2018-01-11T20:16:57.794Z,26.70
2018-01-11T20:19:25.363Z,26.50
2018-01-11T20:21:53.621Z,28.50
2018-01-11T20:24:21.181Z,28.83
2018-01-11T20:26:48.660Z,28.50
2018-01-11T20:29:16.909Z,28.33
2018-01-11T20:31:44.383Z,27.70
2018-01-11T20:34:12.717Z,29.83
2018-01-11T20:36:40.321Z,27.93
2018-01-11T20:39:08.594Z,27.47
2018-01-11T20:41:36.054Z,28.90
2018-01-11T20:44:04.320Z,28.37
2018-01-11T20:46:32.586Z,30.43
2018-01-11T20:49:00.084Z,27.50
2018-01-11T20:51:27.674Z,28.67
2018-01-11T20:53:55.316Z,26.93
2018-01-11T20:56:22.801Z,34.43
2018-01-11T20:58:50.315Z,32.87
2018-01-11T21:01:18.266Z,31.10
2018-01-11T21:03:46.535Z,29.23
2018-01-11T21:06:14.004Z,28.70
2018-01-11T21:08:42.259Z,33.33
2018-01-11T21:11:09.910Z,31.60
2018-01-11T21:13:37.437Z,30.30
2018-01-11T21:16:04.957Z,29.00
2018-01-11T21:18:33.218Z,30.53
2018-01-11T21:21:00.809Z,29.60
2018-01-11T21:23:28.359Z,28.87
2018-01-11T21:25:56.697Z,29.40
2018-01-11T21:28:24.228Z,28.00
2018-01-11T21:30:51.796Z,31.67
2018-01-11T21:33:19.366Z,30.90
2018-01-11T21:35:46.868Z,29.50
2018-01-11T21:38:15.108Z,32.70
2018-01-11T21:40:42.705Z,30.37
2018-01-11T21:43:10.997Z,28.97
2018-01-11T21:45:38.542Z,30.40
2018-01-11T21:48:06.818Z,29.57
2018-01-11T21:50:35.125Z,30.47
2018-01-11T21:53:02.609Z,30.67
2018-01-11T21:55:30.185Z,29.37
2018-01-11T21:57:57.737Z,28.37
2018-01-11T22:00:25.329Z,28.53
2018-01-11T22:02:53.626Z,27.80
2018-01-11T22:05:21.286Z,29.63
2018-01-11T22:07:48.852Z,28.90
2018-01-11T22:10:16.339Z,28.57
2018-01-11T22:12:43.801Z,27.43
2018-01-11T22:15:11.281Z,30.30
2018-01-11T22:17:39.511Z,27.90
2018-01-11T22:20:07.021Z,28.33
2018-01-11T22:22:35.259Z,28.23
2018-01-11T22:25:02.769Z,28.47
2018-01-11T22:27:30.234Z,27.60
2018-01-11T22:29:57.726Z,29.00
2018-01-11T22:32:25.194Z,27.90
2018-01-11T22:34:52.683Z,28.20
2018-01-11T22:37:20.927Z,28.37
2018-01-11T22:39:48.393Z,28.87
2018-01-11T22:42:15.895Z,29.20
2018-01-11T22:44:43.421Z,27.13
2018-01-11T22:47:12.420Z,27.63
2018-01-11T22:49:40.730Z,28.40
2018-01-11T22:52:08.200Z,27.40
2018-01-11T22:54:35.673Z,27.80
2018-01-11T22:57:03.149Z,28.53
2018-01-11T22:59:30.655Z,27.40
2018-01-11T23:01:58.201Z,30.23
2018-01-11T23:04:26.500Z,28.70
2018-01-11T23:06:54.060Z,29.13
2018-01-11T23:09:21.594Z,27.50
2018-01-11T23:11:49.070Z,29.60
2018-01-11T23:14:16.555Z,27.70
2018-01-11T23:16:44.035Z,28.77
2018-01-11T23:19:11.545Z,28.37
2018-01-11T23:21:39.006Z,27.30
2018-01-11T23:24:06.483Z,27.17
2018-01-11T23:26:33.969Z,26.57
2018-01-11T23:29:01.610Z,27.23
2018-01-11T23:31:29.518Z,27.03
2018-01-11T23:33:56.993Z,27.33
2018-01-11T23:36:24.469Z,27.47
2018-01-11T23:38:51.937Z,27.20
2018-01-11T23:41:19.426Z,28.03
2018-01-11T23:43:46.893Z,27.40
2018-01-11T23:46:15.133Z,28.40
2018-01-11T23:48:42.596Z,29.37
2018-01-11T23:51:10.085Z,28.47
2018-01-11T23:53:38.352Z,28.63
2018-01-11T23:56:06.617Z,30.27
2018-01-11T23:58:35.130Z,27.23
